Time;durP1;ratioP1;P1;durP2;ratioP2;P2;SDS_P1;SDS_P2;PMS_P1;PMS_P2;Temp;Humidity;BMP_temperature;BMP_pressure;BME280_temperature;BME280_humidity;BME280_pressure;Samples;Min_cycle;Max_cycle;Signal;HPM_P1;HPM_P2
2021/04/07 00:00:39;;;;;;;7.72;4.80;;;1.70;92.70;;;;;;2107035;28;20119;-72
2021/04/07 00:01:40;;;;;;;7.40;4.55;;;1.70;92.50;;;;;;2106952;28;20432;-72
2021/04/07 00:02:41;;;;;;;7.47;4.60;;;1.70;92.20;;;;;;2106915;28;20028;-73
2021/04/07 00:03:41;;;;;;;7.30;5.22;;;1.70;92.30;;;;;;2106488;28;20484;-71
2021/04/07 00:04:53;;;;;;;7.95;5.07;;;1.70;92.40;;;;;;2106775;28;20107;-71
2021/04/07 00:05:53;;;;;;;8.05;5.20;;;1.70;92.60;;;;;;2106776;28;20031;-72
2021/04/07 00:06:55;;;;;;;8.32;5.72;;;1.70;92.80;;;;;;2106780;28;20437;-72
2021/04/07 00:07:56;;;;;;;8.10;5.60;;;1.70;92.70;;;;;;2106869;28;20021;-70
2021/04/07 00:08:56;;;;;;;7.57;5.45;;;1.70;92.70;;;;;;2106672;28;20031;-70
2021/04/07 00:09:59;;;;;;;12.07;5.45;;;1.70;92.70;;;;;;2105999;28;20032;-71
2021/04/07 00:11:00;;;;;;;8.70;5.70;;;1.70;92.50;;;;;;2097826;28;20032;-71
2021/04/07 00:12:00;;;;;;;8.63;5.57;;;1.70;92.20;;;;;;2106170;28;20066;-70
2021/04/07 00:13:01;;;;;;;9.35;5.88;;;1.70;92.50;;;;;;2106426;28;20024;-71
2021/04/07 00:14:06;;;;;;;7.70;5.63;;;1.70;92.30;;;;;;2105766;28;20534;-71
2021/04/07 00:15:12;;;;;;;8.00;5.47;;;1.60;92.10;;;;;;2106163;28;20550;-71
2021/04/07 00:16:13;;;;;;;9.63;5.70;;;1.60;92.40;;;;;;2106223;28;20062;-71
2021/04/07 00:17:14;;;;;;;8.30;5.85;;;1.60;92.10;;;;;;2106726;28;20024;-71
2021/04/07 00:18:14;;;;;;;8.82;5.50;;;1.60;92.20;;;;;;2106935;28;20302;-70
2021/04/07 00:19:16;;;;;;;8.88;5.80;;;1.60;92.10;;;;;;2097709;28;20028;-71
2021/04/07 00:20:20;;;;;;;8.50;5.47;;;1.70;92.20;;;;;;2097842;28;20174;-71
2021/04/07 00:21:21;;;;;;;7.57;5.47;;;1.70;92.20;;;;;;2106640;28;20135;-71
2021/04/07 00:22:21;;;;;;;10.48;5.70;;;1.70;92.30;;;;;;2106730;28;20502;-70
2021/04/07 00:23:22;;;;;;;9.98;5.97;;;1.70;92.10;;;;;;2105525;28;20499;-70
2021/04/07 00:24:22;;;;;;;8.52;5.40;;;1.70;92.00;;;;;;2105886;28;20067;-71
2021/04/07 00:25:26;;;;;;;8.68;5.15;;;1.70;92.30;;;;;;2105822;28;20024;-71
2021/04/07 00:26:26;;;;;;;8.40;5.65;;;1.70;92.60;;;;;;2105928;28;20031;-70
2021/04/07 00:27:28;;;;;;;10.20;5.70;;;1.70;92.50;;;;;;2106096;28;20054;-71
2021/04/07 00:28:28;;;;;;;9.93;5.57;;;1.70;92.30;;;;;;2106592;28;20028;-71
2021/04/07 00:29:29;;;;;;;8.20;5.82;;;1.70;92.40;;;;;;2106748;28;20390;-71
2021/04/07 00:30:32;;;;;;;9.90;5.85;;;1.70;92.60;;;;;;2106070;28;20093;-71
2021/04/07 00:31:33;;;;;;;9.18;5.55;;;1.70;92.30;;;;;;2097902;28;20036;-71
2021/04/07 00:32:34;;;;;;;9.13;6.00;;;1.70;92.50;;;;;;2105745;28;20107;-72
2021/04/07 00:33:34;;;;;;;7.10;5.07;;;1.70;92.40;;;;;;2106283;28;20027;-71
2021/04/07 00:34:35;;;;;;;9.35;5.53;;;1.70;91.80;;;;;;2106546;28;20063;-71
2021/04/07 00:35:36;;;;;;;7.63;5.07;;;1.70;92.00;;;;;;2105880;28;20073;-71
2021/04/07 00:36:37;;;;;;;6.53;4.70;;;1.70;92.40;;;;;;2105880;28;20040;-71
2021/04/07 00:37:37;;;;;;;8.68;5.32;;;1.70;91.70;;;;;;2106508;28;20036;-71
2021/04/07 00:38:38;;;;;;;9.02;5.20;;;1.70;91.20;;;;;;2097351;28;20502;-72
2021/04/07 00:39:39;;;;;;;8.52;5.50;;;1.70;91.00;;;;;;2097434;28;20082;-71
2021/04/07 00:40:40;;;;;;;7.93;5.35;;;1.70;92.00;;;;;;2097488;28;20025;-71
2021/04/07 00:41:41;;;;;;;7.95;5.18;;;1.70;91.60;;;;;;2105769;28;20060;-71
2021/04/07 00:42:43;;;;;;;8.95;5.25;;;1.70;91.60;;;;;;2106470;28;20460;-71
2021/04/07 00:43:44;;;;;;;7.82;5.35;;;1.70;91.70;;;;;;2105417;28;20020;-71
2021/04/07 00:44:48;;;;;;;7.70;5.15;;;1.70;91.90;;;;;;2105774;28;20036;-71
2021/04/07 00:45:49;;;;;;;7.90;5.45;;;1.70;91.80;;;;;;2105767;28;20074;-71
2021/04/07 00:46:49;;;;;;;9.20;5.10;;;1.70;91.90;;;;;;2105799;28;20063;-71
2021/04/07 00:47:51;;;;;;;7.10;5.15;;;1.70;91.60;;;;;;2106369;28;20032;-71
2021/04/07 00:48:51;;;;;;;9.07;5.32;;;1.60;91.70;;;;;;2105642;28;20027;-71
2021/04/07 00:49:52;;;;;;;9.35;5.60;;;1.70;92.10;;;;;;2105747;28;20430;-71
2021/04/07 00:50:53;;;;;;;7.90;5.40;;;1.70;92.20;;;;;;2105793;28;20042;-71
2021/04/07 00:51:55;;;;;;;8.75;5.72;;;1.70;91.90;;;;;;2097307;28;20048;-71
2021/04/07 00:52:55;;;;;;;9.48;5.80;;;1.70;91.50;;;;;;2105583;28;20118;-71
2021/04/07 00:54:01;;;;;;;9.80;5.85;;;1.70;91.90;;;;;;2106036;28;20035;-71
2021/04/07 00:55:04;;;;;;;8.00;5.50;;;1.60;91.60;;;;;;2106379;28;20578;-71
2021/04/07 00:56:05;;;;;;;8.10;5.80;;;1.60;91.90;;;;;;2105202;28;20131;-71
2021/04/07 00:57:05;;;;;;;10.32;5.72;;;1.70;92.00;;;;;;2105686;28;20035;-71
2021/04/07 00:58:06;;;;;;;8.05;5.80;;;1.60;91.90;;;;;;2106205;28;20364;-71
2021/04/07 00:59:07;;;;;;;7.03;5.25;;;1.70;91.60;;;;;;2106146;28;20039;-71
2021/04/07 01:00:09;;;;;;;8.50;5.43;;;1.60;91.20;;;;;;2106307;28;20157;-71
2021/04/07 01:01:10;;;;;;;10.82;5.80;;;1.70;91.30;;;;;;2106284;28;20127;-71
2021/04/07 01:02:11;;;;;;;7.88;5.63;;;1.60;91.80;;;;;;2105446;28;20024;-71
2021/04/07 01:03:13;;;;;;;7.88;5.30;;;1.70;91.90;;;;;;2105291;28;20070;-71
2021/04/07 01:04:14;;;;;;;8.60;5.40;;;1.70;92.10;;;;;;2106127;28;20035;-71
2021/04/07 01:05:16;;;;;;;8.38;5.53;;;1.70;92.40;;;;;;2106259;28;20013;-71
2021/04/07 01:06:17;;;;;;;9.98;5.63;;;1.70;92.20;;;;;;2106292;28;20012;-71
2021/04/07 01:07:18;;;;;;;7.82;5.60;;;1.70;92.40;;;;;;2106182;28;20406;-71
2021/04/07 01:08:18;;;;;;;8.02;5.28;;;1.70;92.20;;;;;;2105592;28;20047;-71
2021/04/07 01:09:19;;;;;;;7.78;5.60;;;1.70;92.10;;;;;;2105607;28;20034;-71
2021/04/07 01:10:20;;;;;;;7.03;5.03;;;1.70;91.80;;;;;;2106219;28;20066;-71
2021/04/07 01:11:20;;;;;;;8.38;5.47;;;1.60;91.40;;;;;;2106243;28;20095;-71
2021/04/07 01:12:21;;;;;;;8.10;5.22;;;1.60;91.90;;;;;;2106206;28;20043;-71
2021/04/07 01:13:22;;;;;;;8.05;5.07;;;1.60;92.00;;;;;;2105185;28;20028;-71
2021/04/07 01:14:22;;;;;;;7.72;5.40;;;1.60;92.10;;;;;;2105637;28;20028;-70
2021/04/07 01:15:24;;;;;;;7.80;5.00;;;1.60;92.10;;;;;;2106130;28;20584;-70
2021/04/07 01:16:25;;;;;;;9.05;5.10;;;1.60;91.50;;;;;;2106224;28;20028;-70
2021/04/07 01:17:25;;;;;;;8.27;4.90;;;1.60;91.10;;;;;;2106324;28;20023;-70
2021/04/07 01:18:26;;;;;;;6.22;4.80;;;1.60;91.30;;;;;;2106256;28;20020;-70
2021/04/07 01:19:27;;;;;;;8.00;5.05;;;1.60;91.90;;;;;;2106139;28;20035;-71
2021/04/07 01:20:28;;;;;;;7.25;4.82;;;1.60;91.20;;;;;;2106097;28;20085;-70
2021/04/07 01:21:28;;;;;;;8.02;4.65;;;1.60;90.80;;;;;;2106093;28;20024;-70
2021/04/07 01:22:32;;;;;;;7.03;4.80;;;1.60;91.20;;;;;;2105837;28;20105;-70
2021/04/07 01:23:34;;;;;;;8.43;4.75;;;1.60;91.20;;;;;;2105808;28;20091;-70
2021/04/07 01:24:36;;;;;;;8.45;4.75;;;1.60;90.90;;;;;;2106150;28;20042;-70
2021/04/07 01:25:37;;;;;;;6.93;4.70;;;1.50;91.20;;;;;;2106139;28;20032;-70
2021/04/07 01:26:37;;;;;;;6.53;4.50;;;1.50;90.90;;;;;;2106109;28;20067;-70
2021/04/07 01:27:39;;;;;;;7.97;4.80;;;1.50;90.70;;;;;;2105436;28;20403;-72
2021/04/07 01:28:40;;;;;;;8.75;4.82;;;1.50;90.70;;;;;;2105346;28;20065;-71
2021/04/07 01:29:41;;;;;;;7.53;4.45;;;1.50;90.90;;;;;;2105519;28;20028;-70
2021/04/07 01:30:48;;;;;;;7.53;4.43;;;1.50;90.80;;;;;;2105471;28;20032;-70
2021/04/07 01:31:51;;;;;;;6.53;4.60;;;1.60;91.00;;;;;;2106209;28;20032;-71
2021/04/07 01:32:52;;;;;;;6.40;4.82;;;1.60;91.40;;;;;;2106168;28;20048;-70
2021/04/07 01:33:52;;;;;;;8.40;4.60;;;1.60;91.20;;;;;;2105866;28;20035;-70
2021/04/07 01:34:53;;;;;;;6.97;4.72;;;1.60;91.10;;;;;;2106523;28;20468;-71
2021/04/07 01:35:54;;;;;;;8.75;4.35;;;1.60;90.90;;;;;;2106584;28;20414;-71
2021/04/07 01:36:56;;;;;;;6.88;4.70;;;1.60;91.00;;;;;;2105431;28;20089;-71
2021/04/07 01:37:57;;;;;;;7.50;4.28;;;1.60;91.60;;;;;;2105448;28;20024;-70
2021/04/07 01:38:57;;;;;;;8.20;4.70;;;1.60;91.20;;;;;;2105903;28;20111;-70
2021/04/07 01:39:58;;;;;;;7.55;4.30;;;1.60;91.20;;;;;;2105966;28;20062;-71
2021/04/07 01:40:59;;;;;;;7.72;4.80;;;1.60;91.50;;;;;;2105993;28;20028;-71
2021/04/07 01:42:00;;;;;;;7.50;4.68;;;1.60;91.70;;;;;;2106022;28;20043;-71
2021/04/07 01:43:01;;;;;;;6.40;4.00;;;1.60;92.00;;;;;;2105812;28;20047;-71
2021/04/07 01:44:02;;;;;;;7.63;3.95;;;1.60;91.70;;;;;;2105734;28;20103;-71
2021/04/07 01:45:05;;;;;;;8.27;4.15;;;1.60;91.50;;;;;;2105876;28;20513;-71
2021/04/07 01:46:06;;;;;;;6.18;4.03;;;1.60;91.00;;;;;;2105910;28;20024;-71
2021/04/07 01:47:08;;;;;;;6.40;4.00;;;1.60;91.10;;;;;;2105335;28;20032;-71
2021/04/07 01:48:10;;;;;;;8.77;4.32;;;1.60;91.00;;;;;;2105283;28;20012;-71
2021/04/07 01:49:12;;;;;;;7.72;3.95;;;1.60;90.60;;;;;;2105978;28;20029;-71
2021/04/07 01:50:13;;;;;;;6.20;4.15;;;1.60;90.80;;;;;;2105823;28;20490;-71
2021/04/07 01:51:15;;;;;;;5.60;4.20;;;1.60;91.00;;;;;;2105928;28;20310;-71
2021/04/07 01:52:15;;;;;;;8.48;4.18;;;1.60;90.90;;;;;;2105992;28;20178;-71
2021/04/07 01:53:20;;;;;;;6.72;4.15;;;1.60;90.80;;;;;;2105633;28;20406;-71
2021/04/07 01:54:20;;;;;;;7.07;3.72;;;1.60;90.80;;;;;;2105943;28;20067;-71
2021/04/07 01:55:21;;;;;;;6.55;3.83;;;1.60;90.40;;;;;;2105915;28;20019;-71
2021/04/07 01:56:22;;;;;;;6.97;4.10;;;1.60;90.40;;;;;;2105932;28;20039;-70
2021/04/07 01:57:22;;;;;;;6.55;4.15;;;1.60;90.80;;;;;;2105206;28;20048;-71
2021/04/07 01:58:23;;;;;;;6.90;4.13;;;1.60;90.90;;;;;;2105346;28;20110;-71
2021/04/07 01:59:30;;;;;;;5.68;3.65;;;1.70;90.50;;;;;;2105970;28;20031;-71
2021/04/07 02:00:30;;;;;;;5.18;3.60;;;1.70;90.90;;;;;;2105849;28;20427;-71
2021/04/07 02:01:35;;;;;;;6.07;3.75;;;1.70;90.10;;;;;;2105858;28;20130;-71
2021/04/07 02:02:35;;;;;;;7.10;3.97;;;1.70;90.10;;;;;;2105740;28;20103;-71
2021/04/07 02:03:36;;;;;;;5.63;3.40;;;1.70;89.20;;;;;;2105488;28;20471;-71
2021/04/07 02:04:37;;;;;;;7.32;3.55;;;1.70;88.40;;;;;;2105912;28;20028;-70
2021/04/07 02:05:37;;;;;;;7.22;3.70;;;1.70;88.10;;;;;;2105752;28;20498;-71
2021/04/07 02:06:38;;;;;;;6.43;3.80;;;1.70;88.20;;;;;;2105941;28;20056;-71
2021/04/07 02:07:38;;;;;;;6.63;3.80;;;1.70;88.90;;;;;;2104802;28;20029;-71
2021/04/07 02:08:39;;;;;;;5.63;3.42;;;1.70;89.70;;;;;;2104863;28;20111;-72
2021/04/07 02:09:40;;;;;;;5.10;3.47;;;1.70;88.20;;;;;;2105829;28;20031;-71
2021/04/07 02:10:41;;;;;;;4.82;3.53;;;1.70;89.10;;;;;;2105846;28;20024;-71
2021/04/07 02:11:46;;;;;;;5.93;3.50;;;1.70;90.00;;;;;;2105631;28;20016;-71
2021/04/07 02:12:51;;;;;;;4.93;3.40;;;1.70;88.10;;;;;;2105703;28;20043;-72
2021/04/07 02:13:53;;;;;;;6.78;3.47;;;1.70;87.40;;;;;;2105520;28;20082;-71
2021/04/07 02:14:53;;;;;;;7.30;3.70;;;1.70;88.20;;;;;;2105692;28;20431;-71
2021/04/07 02:15:54;;;;;;;4.93;3.35;;;1.70;88.10;;;;;;2105764;28;20086;-71
2021/04/07 02:16:56;;;;;;;6.60;3.72;;;1.70;87.80;;;;;;2105749;28;20487;-71
2021/04/07 02:17:56;;;;;;;6.78;3.70;;;1.70;88.90;;;;;;2105724;28;20326;-71
2021/04/07 02:18:57;;;;;;;5.70;3.65;;;1.70;89.00;;;;;;2105790;28;20052;-71
2021/04/07 02:19:58;;;;;;;5.93;3.65;;;1.70;88.60;;;;;;2105997;28;20458;-70
2021/04/07 02:20:59;;;;;;;8.63;3.92;;;1.70;87.90;;;;;;2105554;28;20028;-71
2021/04/07 02:22:03;;;;;;;6.78;3.67;;;1.70;88.30;;;;;;2105185;28;20522;-71
2021/04/07 02:23:04;;;;;;;5.47;3.60;;;1.70;89.50;;;;;;2105537;28;20032;-71
2021/04/07 02:24:05;;;;;;;6.63;4.10;;;1.70;88.00;;;;;;2104451;28;20123;-70
2021/04/07 02:25:08;;;;;;;6.20;4.00;;;1.60;87.70;;;;;;2105124;28;20356;-71
2021/04/07 02:26:09;;;;;;;6.85;3.80;;;1.70;88.80;;;;;;2105413;28;20035;-70
2021/04/07 02:27:19;;;;;;;6.07;4.18;;;1.60;89.40;;;;;;2097049;28;20119;-70
2021/04/07 02:28:19;;;;;;;8.75;4.55;;;1.70;90.20;;;;;;2105137;28;20020;-70
2021/04/07 02:29:20;;;;;;;7.45;4.68;;;1.70;90.30;;;;;;2105672;28;20266;-72
2021/04/07 02:30:20;;;;;;;6.65;4.50;;;1.70;90.30;;;;;;2104922;28;20574;-70
2021/04/07 02:31:21;;;;;;;6.47;4.55;;;1.70;90.20;;;;;;2105229;28;20063;-70
2021/04/07 02:32:23;;;;;;;8.30;4.80;;;1.70;89.60;;;;;;2105682;28;20062;-70
2021/04/07 02:33:24;;;;;;;8.15;4.90;;;1.70;89.70;;;;;;2105247;28;20024;-70
2021/04/07 02:34:25;;;;;;;8.27;4.95;;;1.70;89.70;;;;;;2105552;28;20023;-72
2021/04/07 02:35:26;;;;;;;8.60;5.03;;;1.70;89.60;;;;;;2105722;28;20028;-72
2021/04/07 02:36:26;;;;;;;8.98;5.25;;;1.70;90.20;;;;;;2105048;28;20111;-72
2021/04/07 02:37:27;;;;;;;9.85;5.63;;;1.70;90.60;;;;;;2096659;28;20068;-72
2021/04/07 02:38:28;;;;;;;11.00;6.30;;;1.70;90.40;;;;;;2096451;28;20036;-72
2021/04/07 02:39:29;;;;;;;8.98;5.95;;;1.70;90.60;;;;;;2105184;28;20028;-72
2021/04/07 02:40:29;;;;;;;8.48;6.13;;;1.70;90.70;;;;;;2105226;28;20024;-70
2021/04/07 02:41:30;;;;;;;8.98;6.35;;;1.70;91.10;;;;;;2105412;28;20028;-71
2021/04/07 02:42:30;;;;;;;12.77;6.75;;;1.60;91.00;;;;;;2105854;28;20035;-71
2021/04/07 02:43:31;;;;;;;10.18;6.15;;;1.60;91.00;;;;;;2105269;28;20134;-71
2021/04/07 02:44:31;;;;;;;10.95;6.20;;;1.60;90.60;;;;;;2105902;28;20053;-71
2021/04/07 02:45:33;;;;;;;11.98;6.85;;;1.60;90.90;;;;;;2106170;28;20028;-71
2021/04/07 02:46:33;;;;;;;11.18;6.70;;;1.60;91.30;;;;;;2106221;28;20407;-71
2021/04/07 02:47:34;;;;;;;12.73;6.32;;;1.60;91.00;;;;;;2105330;28;20020;-71
2021/04/07 02:48:34;;;;;;;10.93;6.50;;;1.60;91.00;;;;;;2105584;28;20031;-71
2021/04/07 02:49:35;;;;;;;12.93;6.88;;;1.60;90.80;;;;;;2106345;28;20103;-71
2021/04/07 02:50:36;;;;;;;12.75;6.60;;;1.60;91.20;;;;;;2106475;28;20109;-71
2021/04/07 02:51:36;;;;;;;12.55;6.78;;;1.60;91.40;;;;;;2108409;28;20054;-70
2021/04/07 02:52:37;;;;;;;10.60;6.88;;;1.70;91.50;;;;;;2113744;28;20101;-70
2021/04/07 02:53:38;;;;;;;10.27;6.78;;;1.70;91.60;;;;;;2104044;28;20084;-71
2021/04/07 02:54:39;;;;;;;11.63;6.85;;;1.70;91.60;;;;;;2113369;28;20048;-70
2021/04/07 02:55:39;;;;;;;12.60;6.57;;;1.70;91.30;;;;;;2113630;28;20042;-73
2021/04/07 02:56:40;;;;;;;10.00;6.75;;;1.60;91.30;;;;;;2114077;28;20035;-70
2021/04/07 02:57:40;;;;;;;11.30;6.78;;;1.60;91.50;;;;;;2113084;28;20388;-70
2021/04/07 02:58:41;;;;;;;9.18;5.97;;;1.60;91.40;;;;;;2107408;28;20039;-71
2021/04/07 02:59:41;;;;;;;12.00;7.03;;;1.60;91.00;;;;;;2106869;28;20356;-71
2021/04/07 03:00:42;;;;;;;10.75;6.25;;;1.60;91.40;;;;;;2108062;28;20023;-70
2021/04/07 03:01:43;;;;;;;12.60;6.68;;;1.60;91.40;;;;;;2106818;28;20422;-71
2021/04/07 03:02:44;;;;;;;11.02;6.28;;;1.70;91.50;;;;;;2106178;28;20012;-70
2021/04/07 03:03:44;;;;;;;12.02;6.03;;;1.70;91.30;;;;;;2105179;28;20028;-71
2021/04/07 03:04:45;;;;;;;11.10;5.95;;;1.70;91.00;;;;;;2105434;28;20112;-70
2021/04/07 03:05:46;;;;;;;11.00;5.90;;;1.60;90.60;;;;;;2104785;28;20489;-71
2021/04/07 03:06:46;;;;;;;10.93;5.85;;;1.60;90.30;;;;;;2104956;28;20028;-71
2021/04/07 03:07:47;;;;;;;10.52;5.85;;;1.60;90.50;;;;;;2105816;28;20043;-69
2021/04/07 03:08:48;;;;;;;9.70;6.18;;;1.60;91.20;;;;;;2105646;28;20348;-70
2021/04/07 03:09:49;;;;;;;11.15;6.28;;;1.60;91.80;;;;;;2105505;28;20021;-69
2021/04/07 03:10:49;;;;;;;12.00;6.05;;;1.60;92.00;;;;;;2105663;28;20028;-69
2021/04/07 03:11:50;;;;;;;11.45;5.80;;;1.60;91.70;;;;;;2105751;28;20035;-68
2021/04/07 03:12:51;;;;;;;9.50;6.20;;;1.60;91.70;;;;;;2105664;28;20032;-69
2021/04/07 03:13:51;;;;;;;11.40;5.68;;;1.60;91.90;;;;;;2104758;28;20115;-69
2021/04/07 03:14:52;;;;;;;11.57;5.93;;;1.60;92.00;;;;;;2105113;28;20526;-69
2021/04/07 03:15:52;;;;;;;9.90;5.68;;;1.60;91.70;;;;;;2105050;28;20091;-70
2021/04/07 03:16:53;;;;;;;8.93;5.50;;;1.60;91.90;;;;;;2104904;28;20372;-70
2021/04/07 03:17:54;;;;;;;8.13;5.60;;;1.60;92.00;;;;;;2104929;28;20040;-69
2021/04/07 03:18:54;;;;;;;9.02;5.57;;;1.60;91.60;;;;;;2105052;28;20085;-69
2021/04/07 03:19:55;;;;;;;9.63;5.72;;;1.50;91.10;;;;;;2105571;28;20502;-70
2021/04/07 03:20:55;;;;;;;9.38;5.70;;;1.50;91.30;;;;;;2105712;28;20067;-70
2021/04/07 03:21:56;;;;;;;11.02;5.85;;;1.50;91.70;;;;;;2104953;28;20049;-69
2021/04/07 03:22:56;;;;;;;8.18;5.55;;;1.50;92.00;;;;;;2104736;28;20041;-69
2021/04/07 03:23:57;;;;;;;10.05;6.80;;;1.50;92.10;;;;;;2105403;28;20055;-70
2021/04/07 03:24:58;;;;;;;8.82;6.00;;;1.60;92.40;;;;;;2105699;28;20028;-69
2021/04/07 03:25:58;;;;;;;12.70;6.30;;;1.60;92.40;;;;;;2104984;28;20322;-69
2021/04/07 03:26:59;;;;;;;11.43;6.78;;;1.50;92.40;;;;;;2105011;28;20020;-70
2021/04/07 03:28:00;;;;;;;11.55;6.00;;;1.50;92.90;;;;;;2105548;28;20030;-69
2021/04/07 03:29:00;;;;;;;13.27;6.50;;;1.50;92.80;;;;;;2104657;28;20396;-70
2021/04/07 03:30:02;;;;;;;10.52;6.72;;;1.50;93.20;;;;;;2096600;28;20028;-71
2021/04/07 03:31:02;;;;;;;10.05;6.55;;;1.50;93.30;;;;;;2096710;28;20120;-69
2021/04/07 03:32:03;;;;;;;11.48;6.93;;;1.40;93.20;;;;;;2105170;28;20090;-70
2021/04/07 03:33:04;;;;;;;10.18;6.97;;;1.50;93.40;;;;;;2105409;28;20115;-69
2021/04/07 03:34:04;;;;;;;12.88;7.25;;;1.50;93.80;;;;;;2105192;28;20050;-69
2021/04/07 03:35:05;;;;;;;11.40;6.68;;;1.40;94.00;;;;;;2105461;28;20024;-70
2021/04/07 03:36:07;;;;;;;10.93;7.00;;;1.40;93.60;;;;;;2104654;28;20040;-70
2021/04/07 03:37:07;;;;;;;12.45;7.35;;;1.40;94.00;;;;;;2104835;28;20027;-69
2021/04/07 03:38:08;;;;;;;13.32;7.60;;;1.40;94.30;;;;;;2105299;28;20039;-68
2021/04/07 03:39:09;;;;;;;12.43;7.68;;;1.40;94.50;;;;;;2105652;28;20017;-68
2021/04/07 03:40:10;;;;;;;11.45;7.47;;;1.40;94.20;;;;;;2105426;28;20117;-69
2021/04/07 03:41:11;;;;;;;13.80;7.60;;;1.30;94.10;;;;;;2105414;28;20099;-68
2021/04/07 03:42:11;;;;;;;12.45;8.15;;;1.30;94.10;;;;;;2105480;28;20510;-70
2021/04/07 03:43:15;;;;;;;12.30;8.13;;;1.30;94.30;;;;;;2105405;28;20024;-69
2021/04/07 03:44:16;;;;;;;14.77;8.75;;;1.30;94.50;;;;;;2105388;28;20024;-69
2021/04/07 03:45:16;;;;;;;14.73;8.63;;;1.20;94.70;;;;;;2105494;28;20055;-70
2021/04/07 03:46:17;;;;;;;13.60;8.30;;;1.30;95.10;;;;;;2105498;28;20036;-68
2021/04/07 03:47:18;;;;;;;15.50;8.30;;;1.20;95.00;;;;;;2105405;28;20016;-70
2021/04/07 03:48:21;;;;;;;14.35;8.60;;;1.30;95.10;;;;;;2105408;28;20016;-69
2021/04/07 03:49:22;;;;;;;13.55;8.23;;;1.20;94.90;;;;;;2105244;28;20569;-69
2021/04/07 03:50:22;;;;;;;13.30;8.50;;;1.20;94.60;;;;;;2105563;28;20020;-69
2021/04/07 03:51:23;;;;;;;13.27;8.63;;;1.20;94.80;;;;;;2104621;28;20046;-69
2021/04/07 03:52:24;;;;;;;19.38;9.40;;;1.20;94.70;;;;;;2104884;28;20029;-70
2021/04/07 03:53:25;;;;;;;14.57;8.48;;;1.20;94.80;;;;;;2105062;28;20032;-69
2021/04/07 03:54:26;;;;;;;15.77;9.02;;;1.20;94.80;;;;;;2105590;28;20020;-71
2021/04/07 03:55:27;;;;;;;13.88;8.70;;;1.10;94.70;;;;;;2105537;28;20071;-69
2021/04/07 03:56:28;;;;;;;17.98;9.05;;;1.10;94.50;;;;;;2105506;28;20028;-69
2021/04/07 03:57:28;;;;;;;15.07;8.70;;;1.10;94.60;;;;;;2105282;28;20038;-69
2021/04/07 03:58:29;;;;;;;13.82;9.10;;;1.20;95.00;;;;;;2105363;28;20176;-69
2021/04/07 03:59:29;;;;;;;14.93;9.10;;;1.20;94.60;;;;;;2105308;28;20479;-69
2021/04/07 04:00:31;;;;;;;15.23;9.35;;;1.20;94.60;;;;;;2105470;28;20107;-69
2021/04/07 04:01:32;;;;;;;15.63;9.20;;;1.20;94.40;;;;;;2105487;28;20111;-69
2021/04/07 04:02:33;;;;;;;15.13;9.32;;;1.10;94.10;;;;;;2105303;28;20082;-69
2021/04/07 04:03:33;;;;;;;14.43;9.55;;;1.10;94.20;;;;;;2105192;28;20032;-69
2021/04/07 04:04:34;;;;;;;15.52;10.27;;;1.10;94.20;;;;;;2104883;28;20032;-70
2021/04/07 04:05:35;;;;;;;19.85;9.88;;;1.10;94.30;;;;;;2104858;28;20418;-69
2021/04/07 04:06:38;;;;;;;16.60;9.77;;;1.10;94.50;;;;;;2105345;28;20027;-70
2021/04/07 04:07:39;;;;;;;16.65;9.57;;;1.10;94.30;;;;;;2105250;28;20031;-69
2021/04/07 04:08:40;;;;;;;18.08;10.50;;;1.10;94.50;;;;;;2105355;28;20025;-68
2021/04/07 04:09:40;;;;;;;17.20;10.15;;;1.10;94.00;;;;;;2105372;28;20437;-69
2021/04/07 04:10:41;;;;;;;16.35;10.13;;;1.10;94.40;;;;;;2105314;28;20411;-69
2021/04/07 04:11:42;;;;;;;17.17;9.80;;;1.10;94.20;;;;;;2105409;28;20028;-69
2021/04/07 04:12:43;;;;;;;17.90;10.73;;;1.10;94.10;;;;;;2104985;28;20082;-69
2021/04/07 04:13:43;;;;;;;17.80;10.52;;;1.10;94.40;;;;;;2105190;28;20023;-69
2021/04/07 04:14:44;;;;;;;17.33;10.10;;;1.10;94.30;;;;;;2105333;28;20027;-69
2021/04/07 04:15:45;;;;;;;18.52;10.60;;;1.10;94.30;;;;;;2105592;28;20099;-70
2021/04/07 04:16:46;;;;;;;17.73;10.25;;;1.10;95.00;;;;;;2104768;28;20419;-69
2021/04/07 04:17:47;;;;;;;18.85;10.60;;;1.10;94.70;;;;;;2096272;28;20024;-71
2021/04/07 04:18:49;;;;;;;17.40;10.20;;;1.20;95.00;;;;;;2096164;28;20028;-69
2021/04/07 04:19:50;;;;;;;15.30;9.65;;;1.20;94.40;;;;;;2104657;28;20557;-70
2021/04/07 04:20:50;;;;;;;17.50;10.43;;;1.20;94.00;;;;;;2105341;28;20027;-70
2021/04/07 04:21:53;;;;;;;15.27;9.90;;;1.10;94.30;;;;;;2105209;28;20421;-69
2021/04/07 04:22:53;;;;;;;19.65;9.98;;;1.20;94.40;;;;;;2104680;28;20101;-70
2021/04/07 04:23:54;;;;;;;17.58;10.23;;;1.20;94.30;;;;;;2104180;28;20105;-69
2021/04/07 04:24:54;;;;;;;16.00;9.80;;;1.20;94.40;;;;;;2104466;28;20495;-70
2021/04/07 04:25:55;;;;;;;17.55;10.38;;;1.20;94.60;;;;;;2104598;28;20016;-70
2021/04/07 04:26:56;;;;;;;19.70;10.80;;;1.20;94.60;;;;;;2105175;28;20479;-69
2021/04/07 04:27:56;;;;;;;17.40;10.27;;;1.20;94.50;;;;;;2105337;28;20399;-69
2021/04/07 04:28:57;;;;;;;16.17;9.43;;;1.20;94.60;;;;;;2105063;28;20070;-70
2021/04/07 04:29:57;;;;;;;15.00;9.68;;;1.20;94.60;;;;;;2105174;28;20760;-69
2021/04/07 04:30:58;;;;;;;15.98;10.00;;;1.20;94.60;;;;;;2105252;28;20041;-70
2021/04/07 04:31:59;;;;;;;15.68;9.68;;;1.30;94.50;;;;;;2106724;28;20024;-70
2021/04/07 04:32:59;;;;;;;15.82;9.63;;;1.30;94.30;;;;;;2106934;28;20051;-70
2021/04/07 04:34:00;;;;;;;15.95;9.43;;;1.20;94.40;;;;;;2106236;28;20521;-69
2021/04/07 04:35:00;;;;;;;14.50;10.00;;;1.20;94.60;;;;;;2106667;28;20103;-70
2021/04/07 04:36:01;;;;;;;15.68;10.43;;;1.30;94.30;;;;;;2106355;28;20410;-70
2021/04/07 04:37:02;;;;;;;18.00;10.07;;;1.30;94.70;;;;;;2106598;28;20036;-70
2021/04/07 04:38:02;;;;;;;16.05;10.25;;;1.30;95.10;;;;;;2107115;28;20482;-69
2021/04/07 04:39:03;;;;;;;16.77;10.23;;;1.30;94.80;;;;;;2106940;28;20026;-70
2021/04/07 04:40:06;;;;;;;16.48;10.30;;;1.20;95.10;;;;;;2107063;28;20539;-70
2021/04/07 04:41:07;;;;;;;15.85;9.80;;;1.30;95.20;;;;;;2107006;28;20024;-68
2021/04/07 04:42:07;;;;;;;16.27;10.45;;;1.20;94.80;;;;;;2106616;28;20112;-71
2021/04/07 04:43:08;;;;;;;17.02;10.68;;;1.20;95.00;;;;;;2106605;28;20115;-69
2021/04/07 04:44:09;;;;;;;18.67;10.68;;;1.20;95.00;;;;;;2106313;28;20065;-69
2021/04/07 04:45:10;;;;;;;16.80;10.38;;;1.20;95.30;;;;;;2106722;28;20028;-69
2021/04/07 04:46:11;;;;;;;17.98;10.52;;;1.20;95.50;;;;;;2106513;28;20032;-68
2021/04/07 04:47:11;;;;;;;17.77;10.93;;;1.20;95.20;;;;;;2106428;28;20024;-70
2021/04/07 04:48:12;;;;;;;16.30;10.80;;;1.20;95.20;;;;;;2106486;28;20031;-70
2021/04/07 04:49:13;;;;;;;18.90;10.85;;;1.20;95.10;;;;;;2106535;28;20479;-69
2021/04/07 04:50:14;;;;;;;18.17;11.38;;;1.20;95.10;;;;;;2105965;28;20020;-70
2021/04/07 04:51:15;;;;;;;19.27;11.45;;;1.20;95.20;;;;;;2097549;28;20112;-70
2021/04/07 04:52:15;;;;;;;19.10;11.70;;;1.20;95.40;;;;;;2097776;28;20044;-69
2021/04/07 04:53:16;;;;;;;20.38;12.45;;;1.20;95.60;;;;;;2105662;28;20075;-70
2021/04/07 04:54:17;;;;;;;20.85;12.63;;;1.30;95.50;;;;;;2105984;28;20028;-70
2021/04/07 04:55:18;;;;;;;20.42;12.70;;;1.30;95.30;;;;;;2105945;28;20034;-71
2021/04/07 04:56:18;;;;;;;20.88;12.73;;;1.30;95.40;;;;;;2106631;28;20028;-70
2021/04/07 04:57:19;;;;;;;22.55;13.80;;;1.20;95.40;;;;;;2106544;28;20044;-69
2021/04/07 04:58:19;;;;;;;20.30;12.73;;;1.30;95.60;;;;;;2106623;28;20057;-69
2021/04/07 04:59:20;;;;;;;22.65;14.05;;;1.30;95.70;;;;;;2106342;28;20055;-70
2021/04/07 05:00:21;;;;;;;21.40;13.18;;;1.30;95.70;;;;;;2106520;28;20036;-69
2021/04/07 05:01:22;;;;;;;21.40;13.50;;;1.30;95.80;;;;;;2106683;28;20027;-69
2021/04/07 05:02:22;;;;;;;23.13;14.07;;;1.30;95.40;;;;;;2106407;28;20034;-70
2021/04/07 05:03:23;;;;;;;24.30;14.23;;;1.30;95.20;;;;;;2106111;28;20040;-69
2021/04/07 05:04:23;;;;;;;23.65;14.60;;;1.20;95.20;;;;;;2106307;28;20106;-68
2021/04/07 05:05:24;;;;;;;24.42;13.98;;;1.20;95.30;;;;;;2106390;28;20020;-70
2021/04/07 05:06:25;;;;;;;22.83;13.50;;;1.20;95.10;;;;;;2106564;28;20024;-69
2021/04/07 05:07:25;;;;;;;23.85;13.48;;;1.30;95.20;;;;;;2106406;28;20024;-69
2021/04/07 05:08:26;;;;;;;21.25;13.43;;;1.30;95.60;;;;;;2106408;28;20059;-70
2021/04/07 05:09:26;;;;;;;22.70;14.25;;;1.20;95.40;;;;;;2106720;28;20364;-70
2021/04/07 05:10:27;;;;;;;23.35;14.13;;;1.30;95.70;;;;;;2106282;28;20039;-70
2021/04/07 05:11:27;;;;;;;23.80;13.57;;;1.30;95.40;;;;;;2106055;28;20055;-72
2021/04/07 05:12:28;;;;;;;23.20;14.40;;;1.30;95.30;;;;;;2106086;28;20324;-70
2021/04/07 05:13:29;;;;;;;21.33;13.63;;;1.30;95.40;;;;;;2105785;28;20111;-72
2021/04/07 05:14:29;;;;;;;21.88;13.57;;;1.30;95.60;;;;;;2106075;28;20471;-73
2021/04/07 05:15:30;;;;;;;19.73;13.15;;;1.30;95.70;;;;;;2105469;28;20574;-71
2021/04/07 05:16:32;;;;;;;21.30;13.95;;;1.30;95.60;;;;;;2105575;28;20067;-73
2021/04/07 05:17:35;;;;;;;22.50;13.82;;;1.30;95.40;;;;;;2106146;28;20024;-69
2021/04/07 05:18:36;;;;;;;19.83;13.65;;;1.30;95.10;;;;;;2106196;28;20028;-70
2021/04/07 05:19:36;;;;;;;22.80;13.25;;;1.40;94.90;;;;;;2097143;28;20031;-69